Grenora, North Dakota
Current Conditions -  °F | °C
As of 11:52 AM on Monday 26 Jan 2015 (Local Time) from KISN Reporting Station
Clear Clear  
Wind Chill: 42°   Ceiling: Unl
Heat Index: 46°   Visibility: 10mi
Dew Point: 31°   Wind: 8mph
Humidity: 56%   Direction: 250°WSW
Pressure: 29.97"   Gusts: NA
Location:  48.62°N, 103.94°W
Report Text: KISN 261752Z AUTO 25007KT 10SM CLR 08/M01 A2997 RMK AO2 SLP163 T00781006 10078 20000 50004
Loading
Personal Weather Stations






























Interactive Weather Map New forecast layout! Learn more

10-Day Weather Forecast

Advertisements
Track Severe Weather on mobile